Time;durP1;ratioP1;P1;durP2;ratioP2;P2;SDS_P1;SDS_P2;PMS_P1;PMS_P2;Temp;Humidity;BMP_temperature;BMP_pressure;BME280_temperature;BME280_humidity;BME280_pressure;Samples;Min_cycle;Max_cycle;Signal;HPM_P1;HPM_P2
2022/05/11 00:01:35;;;;;;;1.73;0.90;;;;;;;14.49;49.20;99354.47;5029793;28;20205;-82
2022/05/11 00:04:02;;;;;;;2.33;0.73;;;;;;;14.38;49.63;99363.06;5029877;28;20552;-82
2022/05/11 00:06:28;;;;;;;3.43;1.10;;;;;;;14.38;50.24;99362.22;5030723;28;20186;-82
2022/05/11 00:08:56;;;;;;;5.23;0.90;;;;;;;14.33;49.96;99361.66;5030646;28;20170;-82
2022/05/11 00:11:23;;;;;;;2.93;0.90;;;;;;;14.28;49.80;99347.88;5030616;28;20613;-82
2022/05/11 00:13:50;;;;;;;1.73;0.80;;;;;;;14.36;49.01;99361.47;5030408;28;20205;-82
2022/05/11 00:16:15;;;;;;;2.33;0.90;;;;;;;14.36;48.35;99356.19;5031152;28;20631;-82
2022/05/11 00:18:41;;;;;;;2.07;0.83;;;;;;;14.28;48.39;99346.06;5030578;28;20181;-82
2022/05/11 00:21:08;;;;;;;3.93;1.17;;;;;;;14.21;49.08;99352.69;5030726;28;20181;-82
2022/05/11 00:23:33;;;;;;;2.13;0.80;;;;;;;14.17;49.04;99359.13;5030491;28;20206;-82
2022/05/11 00:25:59;;;;;;;2.30;0.73;;;;;;;14.15;49.19;99350.44;5030514;28;20213;-82
2022/05/11 00:28:25;;;;;;;1.50;0.93;;;;;;;14.05;49.32;99355.47;5030411;28;20228;-82
2022/05/11 00:30:50;;;;;;;39.17;15.40;;;;;;;14.04;49.11;99353.78;5030386;28;20174;-82
2022/05/11 00:33:17;;;;;;;24.20;8.70;;;;;;;14.03;49.06;99352.09;5029453;28;20262;-82
2022/05/11 00:35:45;;;;;;;8.53;2.87;;;;;;;13.83;49.20;99347.22;5030312;28;20193;-82
2022/05/11 00:38:11;;;;;;;31.07;9.33;;;;;;;13.66;49.51;99346.56;5030610;28;20255;-82
2022/05/11 00:40:46;;;;;;;4.40;1.67;;;;;;;13.49;49.83;99352.88;5030312;28;20238;-82
2022/05/11 00:43:12;;;;;;;17.33;4.43;;;;;;;13.47;49.96;99342.41;5030507;28;20197;-82
2022/05/11 00:45:45;;;;;;;8.07;1.93;;;;;;;13.35;50.29;99342.31;5029318;28;20643;-82
2022/05/11 00:50:58;;;;;;;1.83;0.77;;;;;;;13.48;51.00;99338.84;5030513;28;20173;-82
2022/05/11 00:53:24;;;;;;;3.70;1.07;;;;;;;13.45;50.56;99344.31;5030435;28;20186;-82
2022/05/11 00:55:59;;;;;;;2.60;1.20;;;;;;;13.31;51.16;99341.66;5030453;28;20169;-82
2022/05/11 00:58:46;;;;;;;1.33;0.73;;;;;;;13.19;52.15;99347.66;5030422;28;20168;-82
2022/05/11 01:01:11;;;;;;;1.50;0.60;;;;;;;13.12;52.60;99341.09;5030334;28;20282;-82
2022/05/11 01:03:46;;;;;;;2.73;0.90;;;;;;;12.97;52.79;99338.47;5030025;28;20581;-82
2022/05/11 01:06:12;;;;;;;0.90;0.63;;;;;;;12.94;52.75;99329.00;5030056;28;20732;-82
2022/05/11 01:08:38;;;;;;;4.00;1.17;;;;;;;12.90;53.36;99328.31;5029948;28;20625;-82
2022/05/11 01:11:06;;;;;;;3.47;1.00;;;;;;;12.86;53.59;99318.91;5029889;28;20192;-82
2022/05/11 01:13:32;;;;;;;2.50;1.10;;;;;;;12.86;52.98;99324.19;5029869;28;20674;-82
2022/05/11 01:16:00;;;;;;;7.73;1.13;;;;;;;12.98;52.30;99321.72;5029839;28;20176;-82
2022/05/11 01:18:25;;;;;;;6.07;1.20;;;;;;;12.99;52.61;99326.06;5029804;28;20263;-82
2022/05/11 01:20:52;;;;;;;2.60;0.97;;;;;;;13.09;52.91;99324.63;5030075;28;20276;-81
2022/05/11 01:23:41;;;;;;;4.73;1.57;;;;;;;13.04;52.83;99326.66;5029716;28;20536;-81
2022/05/11 01:26:07;;;;;;;4.63;0.83;;;;;;;12.89;53.21;99323.16;5033498;28;20196;-81
2022/05/11 01:28:39;;;;;;;2.10;0.97;;;;;;;12.94;52.63;99318.47;5033217;28;20182;-81
2022/05/11 01:31:07;;;;;;;1.33;0.53;;;;;;;12.89;52.63;99318.72;5033445;28;20680;-81
2022/05/11 01:33:35;;;;;;;4.23;1.03;;;;;;;12.90;52.88;99315.16;5032155;28;20220;-81
2022/05/11 01:36:23;;;;;;;1.40;0.60;;;;;;;12.76;52.38;99320.38;5033385;28;20196;-81
2022/05/11 01:38:51;;;;;;;0.30;0.20;;;;;;;12.75;52.20;99312.59;5032146;28;20225;-81
2022/05/11 01:41:31;;;;;;;1.13;0.57;;;;;;;12.69;53.02;99323.44;5033379;27;20178;-81
2022/05/11 01:43:56;;;;;;;0.93;0.43;;;;;;;12.54;53.20;99321.72;5033271;28;20195;-81
2022/05/11 01:46:22;;;;;;;1.00;0.50;;;;;;;12.57;52.84;99317.13;5032941;28;20701;-81
2022/05/11 01:48:48;;;;;;;3.30;0.60;;;;;;;12.61;53.01;99321.25;5031928;28;20180;-81
2022/05/11 01:51:15;;;;;;;2.93;0.43;;;;;;;12.50;53.41;99328.09;5033120;28;20184;-81
2022/05/11 01:53:42;;;;;;;1.80;0.53;;;;;;;12.50;53.43;99325.47;5032706;28;20200;-81
2022/05/11 01:56:09;;;;;;;3.57;0.67;;;;;;;12.62;53.37;99333.50;5031813;28;20725;-81
2022/05/11 01:58:36;;;;;;;0.73;0.40;;;;;;;12.42;52.00;99331.13;5031805;28;20185;-81
2022/05/11 02:01:02;;;;;;;1.00;0.50;;;;;;;12.26;52.27;99341.66;5033133;28;20178;-81
2022/05/11 02:03:27;;;;;;;1.13;0.50;;;;;;;12.42;51.45;99327.69;5031667;28;20181;-81
2022/05/11 02:08:39;;;;;;;0.93;0.53;;;;;;;12.49;51.09;99329.00;5032632;28;20688;-81
2022/05/11 02:11:05;;;;;;;1.63;0.70;;;;;;;12.56;50.74;99330.34;5032778;28;20228;-81
2022/05/11 02:13:32;;;;;;;1.80;0.80;;;;;;;12.41;51.34;99334.72;5033037;28;20240;-81
2022/05/11 02:15:58;;;;;;;7.13;0.80;;;;;;;12.16;52.68;99331.75;5033038;28;20171;-81
2022/05/11 02:18:24;;;;;;;2.33;0.80;;;;;;;12.13;52.93;99337.22;5032695;28;20181;-81
2022/05/11 02:20:49;;;;;;;2.87;0.87;;;;;;;12.00;54.12;99334.38;5032963;28;20254;-81
2022/05/11 02:23:17;;;;;;;1.20;0.60;;;;;;;12.04;54.07;99338.56;5032555;28;20643;-81
2022/05/11 02:25:44;;;;;;;0.67;0.57;;;;;;;12.08;53.76;99331.38;5032298;28;20188;-81
2022/05/11 02:28:11;;;;;;;0.83;0.73;;;;;;;12.12;54.26;99335.50;5031305;28;20196;-81
2022/05/11 02:30:36;;;;;;;2.03;0.87;;;;;;;12.25;54.05;99332.09;5032518;28;20244;-81
2022/05/11 02:33:02;;;;;;;3.13;0.70;;;;;;;12.24;54.05;99340.06;5032513;28;20187;-81
2022/05/11 02:35:28;;;;;;;1.80;0.90;;;;;;;12.11;55.37;99339.91;5032148;28;20180;-81
2022/05/11 02:38:00;;;;;;;1.53;0.93;;;;;;;11.86;56.01;99334.31;5031203;28;20222;-81
2022/05/11 02:40:28;;;;;;;2.40;0.90;;;;;;;11.83;56.40;99339.72;5032665;28;20587;-81
2022/05/11 02:42:54;;;;;;;5.23;1.53;;;;;;;11.86;56.61;99336.94;5031975;28;20711;-81
2022/05/11 02:45:21;;;;;;;17.10;7.23;;;;;;;11.95;55.67;99333.78;5032215;28;20257;-81
2022/05/11 02:47:48;;;;;;;8.30;2.37;;;;;;;12.00;55.77;99325.69;5032027;28;20207;-81
2022/05/11 02:50:17;;;;;;;3.87;2.30;;;;;;;12.09;55.33;99330.41;5031970;28;20180;-81
2022/05/11 02:52:43;;;;;;;2.10;0.53;;;;;;;12.10;55.75;99327.72;5030945;28;20215;-81
2022/05/11 02:55:09;;;;;;;1.83;1.07;;;;;;;12.07;55.79;99327.03;5031768;28;20285;-81
2022/05/11 02:57:34;;;;;;;1.33;0.70;;;;;;;12.02;55.41;99334.31;5030871;28;20279;-81
2022/05/11 03:00:00;;;;;;;1.93;0.57;;;;;;;12.04;54.28;99337.69;5032056;28;20266;-81
2022/05/11 03:02:26;;;;;;;5.87;0.77;;;;;;;12.05;53.62;99334.16;5030724;28;20208;-81
2022/05/11 03:04:52;;;;;;;9.23;1.60;;;;;;;12.12;53.13;99338.13;5031751;28;20189;-81
2022/05/11 03:07:18;;;;;;;7.67;1.37;;;;;;;12.13;53.27;99331.94;5030863;28;20193;-81
2022/05/11 03:09:44;;;;;;;4.67;1.00;;;;;;;12.11;53.26;99337.28;5031636;28;20263;-81
2022/05/11 03:12:11;;;;;;;4.33;0.83;;;;;;;12.07;53.38;99329.66;5031624;28;20204;-81
2022/05/11 03:14:37;;;;;;;2.47;1.07;;;;;;;12.00;53.56;99337.00;5031582;28;20206;-81
2022/05/11 03:17:03;;;;;;;1.30;0.60;;;;;;;11.92;53.69;99334.00;5031756;28;20183;-81
2022/05/11 03:19:29;;;;;;;2.60;0.80;;;;;;;11.81;53.54;99327.63;5031696;28;20178;-81
2022/05/11 03:21:56;;;;;;;2.03;0.97;;;;;;;11.80;53.78;99333.78;5031907;28;20669;-81
2022/05/11 03:24:22;;;;;;;0.90;0.50;;;;;;;11.73;53.98;99335.06;5031391;28;20185;-81
2022/05/11 03:26:47;;;;;;;2.87;0.87;;;;;;;11.74;53.80;99340.22;5031645;28;20262;-81
2022/05/11 03:29:12;;;;;;;1.13;0.63;;;;;;;11.69;54.42;99335.22;5031335;28;20186;-81
2022/05/11 03:31:39;;;;;;;0.90;0.47;;;;;;;11.66;54.39;99343.22;5031609;28;20256;-81
2022/05/11 03:36:51;;;;;;;1.87;0.83;;;;;;;11.70;54.99;99349.19;5032070;28;20173;-81
2022/05/11 03:39:17;;;;;;;1.73;0.90;;;;;;;11.70;55.41;99344.81;5031197;28;20183;-81
2022/05/11 03:41:45;;;;;;;2.00;0.60;;;;;;;11.61;55.72;99342.63;5031072;28;20202;-81
2022/05/11 03:44:11;;;;;;;1.27;0.50;;;;;;;11.65;55.62;99352.03;5030184;28;20595;-81
2022/05/11 03:46:37;;;;;;;1.10;0.60;;;;;;;11.71;55.40;99349.09;5029957;28;20183;-81
2022/05/11 03:49:02;;;;;;;1.67;0.60;;;;;;;11.67;56.09;99355.44;5030696;28;20190;-81
2022/05/11 03:51:28;;;;;;;0.80;0.50;;;;;;;11.78;56.29;99354.03;5030989;28;20183;-81
2022/05/11 03:53:53;;;;;;;1.87;0.60;;;;;;;11.77;56.64;99354.97;5031139;28;20206;-81
2022/05/11 03:56:19;;;;;;;0.97;0.60;;;;;;;11.79;56.74;99350.50;5029988;28;20179;-81
2022/05/11 03:58:45;;;;;;;0.87;0.50;;;;;;;11.83;57.17;99346.75;5030889;28;20191;-81
2022/05/11 04:01:11;;;;;;;1.33;0.63;;;;;;;11.87;57.29;99341.25;5031063;28;20174;-81
2022/05/11 04:03:37;;;;;;;1.30;0.50;;;;;;;11.92;57.39;99348.91;5030818;28;20175;-81
2022/05/11 04:06:03;;;;;;;1.70;0.67;;;;;;;12.04;57.26;99350.84;5030809;28;20183;-81
2022/05/11 04:08:28;;;;;;;2.57;0.87;;;;;;;12.10;56.83;99351.38;5031015;28;20317;-81
2022/05/11 04:10:54;;;;;;;2.20;0.73;;;;;;;12.15;56.72;99356.34;5029782;28;20179;-81
2022/05/11 04:13:19;;;;;;;3.33;0.87;;;;;;;12.19;56.23;99357.88;5030688;28;20536;-81
2022/05/11 04:15:48;;;;;;;1.20;0.63;;;;;;;12.24;56.29;99355.81;5029704;28;20627;-81
2022/05/11 04:18:14;;;;;;;2.57;0.93;;;;;;;12.34;55.91;99357.03;5030619;28;20185;-81
2022/05/11 04:20:39;;;;;;;1.07;0.67;;;;;;;12.47;55.74;99357.19;5030859;28;20175;-81
2022/05/11 04:23:04;;;;;;;1.43;0.60;;;;;;;12.54;55.31;99350.63;5030752;28;20202;-81
2022/05/11 04:25:30;;;;;;;1.40;0.63;;;;;;;12.68;55.31;99356.78;5031078;28;20189;-81
2022/05/11 04:27:55;;;;;;;4.23;0.50;;;;;;;12.78;55.56;99360.59;5030779;28;20175;-81
2022/05/11 04:30:22;;;;;;;2.13;1.07;;;;;;;12.87;55.20;99367.94;5030470;28;20172;-81
2022/05/11 04:32:48;;;;;;;1.07;0.63;;;;;;;12.99;55.13;99368.19;5030417;28;20176;-81
2022/05/11 04:35:14;;;;;;;2.43;0.90;;;;;;;13.20;54.76;99359.91;5030680;28;20187;-81
2022/05/11 04:37:39;;;;;;;0.87;0.47;;;;;;;13.33;53.75;99365.28;5030400;28;20208;-81
2022/05/11 04:40:05;;;;;;;1.50;0.80;;;;;;;13.43;53.17;99364.63;5030590;28;20619;-81
2022/05/11 04:42:31;;;;;;;0.80;0.60;;;;;;;13.61;52.78;99364.44;5030782;28;20675;-81
2022/05/11 04:44:56;;;;;;;2.50;0.90;;;;;;;13.77;52.62;99360.78;5030248;28;20181;-81
2022/05/11 04:47:22;;;;;;;1.70;1.00;;;;;;;13.90;52.98;99369.59;5030214;28;20174;-81
2022/05/11 04:49:48;;;;;;;2.67;0.83;;;;;;;14.04;53.23;99369.59;5030183;28;20182;-81
2022/05/11 04:52:16;;;;;;;2.67;1.10;;;;;;;14.16;53.68;99367.97;5029256;28;20205;-81
2022/05/11 04:54:48;;;;;;;3.17;0.73;;;;;;;14.37;53.63;99374.53;5030174;28;20322;-81
2022/05/11 04:57:14;;;;;;;1.80;0.77;;;;;;;14.61;53.14;99383.50;5030188;28;20254;-81
2022/05/11 04:59:40;;;;;;;2.83;0.80;;;;;;;14.97;53.08;99382.88;5031194;28;20182;-81
2022/05/11 05:02:07;;;;;;;0.93;0.50;;;;;;;15.51;51.76;99372.22;5033547;28;20578;-81
2022/05/11 05:04:33;;;;;;;3.07;1.13;;;;;;;16.19;50.81;99372.66;5033587;28;20186;-81
2022/05/11 05:06:58;;;;;;;2.90;0.80;;;;;;;16.76;48.44;99370.25;5032568;28;20179;-81
2022/05/11 05:09:24;;;;;;;2.53;0.90;;;;;;;17.43;46.41;99366.84;5034098;28;20190;-81
2022/05/11 05:11:50;;;;;;;2.20;1.03;;;;;;;18.11;44.40;99371.22;5033734;28;20162;-81
2022/05/11 05:14:16;;;;;;;4.33;1.57;;;;;;;18.50;43.04;99376.00;5033712;28;20272;-81
2022/05/11 05:16:42;;;;;;;3.13;1.00;;;;;;;18.76;43.30;99376.56;5033679;28;20244;-81
2022/05/11 05:19:09;;;;;;;22.07;8.73;;;;;;;19.07;42.83;99374.88;5033375;28;20193;-79
2022/05/11 05:21:35;;;;;;;8.43;2.53;;;;;;;19.13;42.41;99374.34;5033202;28;20194;-79
2022/05/11 05:24:01;;;;;;;5.17;1.10;;;;;;;19.39;42.67;99373.03;5033860;28;20610;-79
2022/05/11 05:26:27;;;;;;;5.50;1.60;;;;;;;19.76;41.92;99384.03;5033250;28;20178;-79
2022/05/11 05:31:36;;;;;;;2.97;1.20;;;;;;;20.09;39.15;99381.09;5033235;28;20238;-78
2022/05/11 05:34:02;;;;;;;2.20;0.83;;;;;;;20.03;38.55;99387.78;5033420;28;20268;-78
2022/05/11 05:36:36;;;;;;;1.33;0.70;;;;;;;19.63;38.45;99394.03;5033124;28;20265;-78
2022/05/11 05:39:03;;;;;;;3.33;1.40;;;;;;;19.15;40.25;99388.34;5033684;28;20159;-79
2022/05/11 05:41:29;;;;;;;4.10;0.90;;;;;;;19.11;40.44;99386.91;5031988;28;20616;-78
2022/05/11 05:43:55;;;;;;;2.03;0.93;;;;;;;19.10;39.57;99387.91;5032969;28;20181;-78
2022/05/11 05:46:21;;;;;;;2.07;0.67;;;;;;;19.03;40.60;99396.38;5032977;28;20211;-78
2022/05/11 05:48:47;;;;;;;3.77;0.80;;;;;;;18.85;41.27;99392.56;5033166;28;20191;-79
2022/05/11 05:51:15;;;;;;;4.87;1.23;;;;;;;18.55;41.33;99403.06;5033115;28;20190;-79
2022/05/11 05:53:42;;;;;;;3.53;1.00;;;;;;;18.23;41.01;99404.75;5031671;28;20245;-79
2022/05/11 05:56:12;;;;;;;7.23;0.93;;;;;;;18.28;41.81;99407.88;5033329;28;20198;-79
2022/05/11 05:58:40;;;;;;;4.33;1.87;;;;;;;18.28;41.45;99406.09;5031871;28;20559;-79
2022/05/11 06:01:06;;;;;;;1.80;0.60;;;;;;;18.34;42.50;99416.19;5032739;28;20180;-79
2022/05/11 06:03:35;;;;;;;2.67;0.97;;;;;;;18.05;43.08;99408.88;5031684;28;20643;-79
2022/05/11 06:06:00;;;;;;;4.97;1.13;;;;;;;17.76;43.55;99412.00;5032895;28;20265;-79
2022/05/11 06:08:26;;;;;;;2.67;0.90;;;;;;;18.12;43.01;99402.09;5032627;28;20258;-79
2022/05/11 06:10:53;;;;;;;2.03;0.90;;;;;;;18.22;43.93;99406.56;5032696;28;20519;-79
2022/05/11 06:13:23;;;;;;;2.17;0.93;;;;;;;18.59;43.40;99414.25;5031572;28;20189;-79
2022/05/11 06:15:50;;;;;;;3.23;1.07;;;;;;;19.17;43.00;99407.66;5031559;28;20532;-79
2022/05/11 06:18:16;;;;;;;1.90;1.07;;;;;;;19.47;43.36;99402.47;5031552;28;20174;-79
2022/05/11 06:20:42;;;;;;;2.57;0.83;;;;;;;19.71;41.70;99408.34;5032436;28;20265;-78
2022/05/11 06:23:07;;;;;;;1.40;1.00;;;;;;;19.57;42.48;99406.03;5032307;28;20198;-79
2022/05/11 06:25:35;;;;;;;1.97;1.03;;;;;;;19.55;41.84;99406.16;5032349;28;20194;-79
2022/05/11 06:28:01;;;;;;;2.63;1.10;;;;;;;19.40;42.16;99415.44;5031410;28;20189;-79
2022/05/11 06:30:28;;;;;;;2.30;0.60;;;;;;;19.68;42.31;99403.28;5032314;28;20182;-79
2022/05/11 06:32:54;;;;;;;1.60;0.70;;;;;;;20.15;41.88;99402.66;5032232;28;20189;-79
2022/05/11 06:35:20;;;;;;;2.70;1.00;;;;;;;20.60;40.56;99408.44;5031276;28;20193;-80
2022/05/11 06:37:46;;;;;;;2.10;0.83;;;;;;;20.73;39.69;99405.50;5032202;28;20538;-80
2022/05/11 06:40:14;;;;;;;1.63;1.03;;;;;;;20.85;39.67;99409.75;5032162;28;20207;-80
2022/05/11 06:42:41;;;;;;;2.70;1.40;;;;;;;20.88;39.19;99406.81;5032577;28;20202;-80
2022/05/11 06:45:07;;;;;;;3.90;1.00;;;;;;;21.21;39.27;99398.44;5031108;28;20223;-80
2022/05/11 06:47:33;;;;;;;2.53;0.97;;;;;;;21.72;39.73;99397.22;5032007;28;20536;-80
2022/05/11 06:49:59;;;;;;;2.33;1.30;;;;;;;21.94;39.15;99402.25;5031949;28;20626;-80
2022/05/11 06:52:25;;;;;;;9.60;1.67;;;;;;;22.37;38.99;99399.81;5030975;28;20170;-80
2022/05/11 07:00:21;;;;;;;1.17;0.73;;;;;;;23.29;36.53;99387.09;5032635;28;20177;-80
2022/05/11 07:02:46;;;;;;;1.03;0.60;;;;;;;23.15;36.15;99390.28;5031712;28;20581;-80
2022/05/11 07:05:12;;;;;;;3.50;1.00;;;;;;;23.14;35.41;99389.44;5031763;28;20171;-80
2022/05/11 07:07:39;;;;;;;2.27;0.90;;;;;;;23.03;35.54;99399.56;5030764;28;20189;-81
2022/05/11 07:10:05;;;;;;;2.63;0.83;;;;;;;23.00;35.11;99392.69;5031943;28;20171;-80
2022/05/11 07:12:38;;;;;;;4.47;1.07;;;;;;;22.91;36.08;99400.75;5032145;28;20269;-81
2022/05/11 07:15:08;;;;;;;3.57;1.13;;;;;;;23.30;37.09;99396.78;5032198;28;20597;-81
2022/05/11 07:17:42;;;;;;;5.53;1.07;;;;;;;23.56;35.97;99386.13;5031915;28;20219;-81
2022/05/11 07:20:09;;;;;;;2.10;0.90;;;;;;;23.55;35.47;99387.13;5030591;28;20235;-81
2022/05/11 07:22:35;;;;;;;3.90;1.63;;;;;;;23.38;34.53;99399.53;5030703;28;20198;-81
2022/05/11 07:25:01;;;;;;;2.70;1.20;;;;;;;23.25;34.92;99393.72;5032011;28;20708;-80
2022/05/11 07:27:27;;;;;;;1.67;0.70;;;;;;;23.32;35.73;99399.31;5031370;28;20257;-81
2022/05/11 07:29:54;;;;;;;3.93;0.60;;;;;;;23.54;35.48;99393.47;5031910;28;20201;-81
2022/05/11 07:32:21;;;;;;;2.23;0.80;;;;;;;23.73;36.36;99394.13;5031305;28;20175;-81
2022/05/11 07:34:46;;;;;;;1.60;0.70;;;;;;;24.02;35.58;99393.78;5030359;28;20570;-81
2022/05/11 07:37:12;;;;;;;3.13;1.37;;;;;;;24.18;34.40;99388.56;5031217;28;20633;-81
2022/05/11 07:39:38;;;;;;;5.20;1.00;;;;;;;24.21;35.24;99384.72;5031480;28;20252;-81
2022/05/11 07:42:04;;;;;;;4.20;1.57;;;;;;;24.23;34.84;99388.91;5030126;28;20214;-81
2022/05/11 07:44:30;;;;;;;7.57;1.40;;;;;;;24.35;34.88;99392.13;5031675;28;20174;-81
2022/05/11 07:46:55;;;;;;;2.67;0.80;;;;;;;24.28;34.26;99386.59;5031070;28;20539;-81
2022/05/11 07:49:21;;;;;;;3.30;1.13;;;;;;;24.18;34.91;99391.22;5031268;28;20231;-82
2022/05/11 07:51:49;;;;;;;2.57;1.13;;;;;;;24.10;34.45;99393.88;5031559;28;20166;-81
2022/05/11 07:54:15;;;;;;;2.80;1.10;;;;;;;24.13;35.83;99390.03;5031137;28;20228;-82
2022/05/11 08:02:08;;;;;;;6.17;1.33;;;;;;;24.50;37.44;99385.16;5031572;28;20201;-82
2022/05/11 08:04:35;;;;;;;5.43;1.10;;;;;;;24.49;36.88;99380.78;5031070;28;20175;-81
2022/05/11 08:07:01;;;;;;;1.70;1.17;;;;;;;24.52;36.51;99377.78;5029857;28;20183;-82
2022/05/11 08:09:26;;;;;;;3.57;0.73;;;;;;;24.69;34.91;99384.84;5031030;28;20174;-81
2022/05/11 08:11:53;;;;;;;1.33;0.80;;;;;;;24.67;35.58;99378.00;5030758;28;20170;-81
2022/05/11 08:14:19;;;;;;;6.67;1.07;;;;;;;24.90;36.58;99381.75;5030723;28;20565;-81
2022/05/11 08:16:44;;;;;;;4.07;0.80;;;;;;;25.13;34.96;99380.09;5029683;28;20625;-81
2022/05/11 08:19:10;;;;;;;1.47;0.70;;;;;;;25.31;34.69;99380.78;5030628;28;20182;-81
2022/05/11 08:21:36;;;;;;;8.00;1.00;;;;;;;25.48;33.83;99376.25;5030522;28;20203;-81
2022/05/11 08:24:01;;;;;;;2.73;1.37;;;;;;;25.60;36.02;99373.06;5030573;28;20184;-82
2022/05/11 08:26:27;;;;;;;7.97;1.07;;;;;;;25.66;34.81;99374.22;5030554;28;20178;-82
2022/05/11 08:28:53;;;;;;;2.97;1.10;;;;;;;25.88;34.82;99378.88;5030472;28;20183;-82
2022/05/11 08:34:03;;;;;;;3.57;1.20;;;;;;;25.24;33.80;99374.41;5030626;28;20177;-81
2022/05/11 08:36:29;;;;;;;4.83;1.43;;;;;;;25.16;34.74;99381.63;5030439;28;20183;-81
2022/05/11 08:38:57;;;;;;;10.43;3.90;;;;;;;24.98;34.72;99389.81;5030355;28;20235;-81
2022/05/11 08:41:39;;;;;;;5.50;2.40;;;;;;;24.83;33.36;99386.09;5030269;28;20347;-81
2022/05/11 08:44:13;;;;;;;1.87;1.00;;;;;;;25.12;33.54;99381.13;5030885;28;20163;-81
2022/05/11 08:46:49;;;;;;;5.17;1.40;;;;;;;25.47;33.20;99374.59;5030579;28;20554;-82
2022/05/11 08:49:25;;;;;;;4.47;1.00;;;;;;;25.32;33.04;99377.09;5029298;28;20181;-81
2022/05/11 08:52:04;;;;;;;4.43;1.10;;;;;;;25.14;30.64;99379.09;5030536;28;20158;-82
2022/05/11 08:54:49;;;;;;;6.60;1.30;;;;;;;25.65;30.63;99386.00;5028728;28;20194;-82
2022/05/11 08:57:26;;;;;;;3.37;0.93;;;;;;;25.58;30.18;99383.13;5029581;28;20190;-81
2022/05/11 08:59:58;;;;;;;3.67;1.10;;;;;;;25.69;31.35;99381.94;5029902;28;20155;-82
2022/05/11 09:02:30;;;;;;;2.00;0.90;;;;;;;26.00;30.78;99380.19;5029491;28;20684;-82
2022/05/11 09:04:59;;;;;;;5.10;0.87;;;;;;;26.18;28.77;99380.81;5029469;28;20216;-82
2022/05/11 09:07:27;;;;;;;4.03;0.90;;;;;;;26.40;27.29;99373.00;5029146;28;20174;-82
2022/05/11 09:09:54;;;;;;;1.83;0.87;;;;;;;26.61;23.96;99368.69;5029103;28;20178;-82
2022/05/11 09:12:20;;;;;;;3.13;0.93;;;;;;;26.78;25.48;99366.78;5028108;28;20187;-82
2022/05/11 09:14:50;;;;;;;2.00;0.73;;;;;;;27.06;27.53;99377.84;5028103;28;20187;-83
2022/05/11 09:17:23;;;;;;;2.72;1.00;;;;;;;27.00;28.26;99376.72;5028113;28;20547;-83
2022/05/11 09:20:00;;;;;;;1.90;0.85;;;;;;;27.42;28.58;99366.31;5028978;28;20186;-82
2022/05/11 09:22:26;;;;;;;2.92;1.17;;;;;;;27.36;26.92;99372.38;5029458;28;20197;-82
2022/05/11 09:24:56;;;;;;;2.75;1.33;;;;;;;27.43;27.95;99370.69;5027954;28;20215;-82
2022/05/11 09:27:30;;;;;;;2.00;0.75;;;;;;;27.82;28.23;99367.75;5029154;28;20179;-82
2022/05/11 09:30:19;;;;;;;3.83;0.93;;;;;;;28.15;26.43;99368.25;5027891;28;20651;-83
2022/05/11 09:32:45;;;;;;;2.83;0.90;;;;;;;28.18;26.16;99369.72;5027860;28;20163;-83
2022/05/11 09:35:33;;;;;;;2.80;1.00;;;;;;;27.69;27.01;99378.34;5028746;28;20182;-82
2022/05/11 09:38:05;;;;;;;2.00;0.65;;;;;;;27.85;27.21;99371.94;5028365;28;20171;-83
2022/05/11 09:40:47;;;;;;;2.92;0.82;;;;;;;28.08;26.52;99369.19;5029021;28;20594;-83
2022/05/11 09:43:29;;;;;;;2.65;1.13;;;;;;;27.94;25.98;99373.50;5028606;28;20190;-83
2022/05/11 09:45:55;;;;;;;2.78;0.68;;;;;;;28.04;27.08;99376.78;5028986;28;20550;-82
2022/05/11 09:48:35;;;;;;;3.53;1.02;;;;;;;27.69;28.17;99372.97;5031700;28;20249;-84
2022/05/11 09:51:16;;;;;;;3.95;0.98;;;;;;;27.82;27.68;99367.75;5030789;28;20185;-83
2022/05/11 09:53:54;;;;;;;3.20;0.95;;;;;;;28.10;26.98;99365.28;4992255;28;1138217;-83
2022/05/11 09:56:29;;;;;;;12.68;1.33;;;;;;;28.14;27.49;99371.16;5031935;28;20249;-83
2022/05/11 09:58:55;;;;;;;2.63;1.23;;;;;;;28.12;28.02;99374.00;5033104;28;20721;-83
2022/05/11 10:01:29;;;;;;;3.47;1.00;;;;;;;28.34;28.52;99369.53;5032676;28;20253;-84
2022/05/11 10:04:03;;;;;;;4.28;0.80;;;;;;;28.64;27.59;99363.91;5031794;28;20218;-83
2022/05/11 10:06:34;;;;;;;4.10;1.20;;;;;;;28.88;27.38;99353.81;5031801;28;20257;-85
2022/05/11 10:09:01;;;;;;;4.30;1.15;;;;;;;28.97;29.05;99352.66;5032536;28;20175;-84
2022/05/11 10:11:40;;;;;;;2.55;0.85;;;;;;;28.84;28.18;99358.75;5031654;28;20183;-84
2022/05/11 10:22:46;;;;;;;2.05;0.80;;;;;;;29.14;28.12;99354.06;4970946;28;20242;-84
2022/05/11 10:25:26;;;;;;;3.80;1.00;;;;;;;29.22;28.06;99346.69;5017646;28;20198;-84
2022/05/11 10:28:16;;;;;;;3.08;1.17;;;;;;;29.40;28.51;99338.13;5030346;28;20159;-84
2022/05/11 10:31:12;;;;;;;1.42;0.65;;;;;;;29.35;29.53;99340.56;5030308;28;20170;-84
2022/05/11 10:34:22;;;;;;;2.40;1.33;;;;;;;29.32;29.15;99330.16;5030255;28;20181;-83
2022/05/11 10:37:08;;;;;;;1.10;0.68;;;;;;;29.31;28.99;99339.28;4988760;28;20544;-83
2022/05/11 10:40:04;;;;;;;2.35;1.10;;;;;;;29.73;28.05;99339.19;5031309;28;20202;-84
2022/05/11 10:42:29;;;;;;;2.95;1.17;;;;;;;29.72;28.06;99337.50;5032373;28;20258;-83
2022/05/11 10:44:55;;;;;;;2.67;0.90;;;;;;;30.07;28.32;99329.44;5031141;28;20182;-84
2022/05/11 10:47:32;;;;;;;5.95;0.90;;;;;;;29.95;28.13;99331.03;5032083;28;20257;-83
2022/05/11 10:50:22;;;;;;;5.82;1.48;;;;;;;30.15;27.85;99326.56;5032057;28;20572;-83
2022/05/11 10:53:01;;;;;;;3.25;1.25;;;;;;;30.10;27.41;99329.88;5030578;28;20258;-83
2022/05/11 10:55:45;;;;;;;2.75;1.00;;;;;;;29.88;29.19;99322.03;5030907;28;20226;-83
2022/05/11 10:58:28;;;;;;;2.72;0.90;;;;;;;29.85;28.52;99325.16;5029701;28;20171;-84
2022/05/11 11:01:07;;;;;;;3.40;1.10;;;;;;;30.33;27.98;99324.13;5032128;28;20166;-83
2022/05/11 11:04:03;;;;;;;6.20;1.55;;;;;;;30.28;27.93;99316.63;5032050;28;20182;-83
2022/05/11 11:09:44;;;;;;;2.20;1.00;;;;;;;30.56;28.72;99313.84;5032010;28;20182;-83
2022/05/11 11:12:55;;;;;;;2.17;0.90;;;;;;;30.55;27.70;99301.38;5030788;28;20154;-84
2022/05/11 11:15:26;;;;;;;5.55;0.77;;;;;;;30.00;27.92;99312.34;5015941;28;20285;-84
2022/05/11 11:17:54;;;;;;;2.65;1.10;;;;;;;29.80;28.02;99307.66;5031922;28;20208;-83
2022/05/11 11:20:21;;;;;;;2.65;0.93;;;;;;;29.80;27.71;99313.06;5031545;28;20182;-82
2022/05/11 11:23:02;;;;;;;4.88;1.20;;;;;;;29.71;28.58;99318.81;5030479;28;20194;-84
2022/05/11 11:25:45;;;;;;;3.05;1.23;;;;;;;30.01;28.07;99314.84;5030527;28;20197;-83
2022/05/11 11:28:15;;;;;;;3.97;1.63;;;;;;;30.15;27.78;99313.88;5031457;28;20163;-83
2022/05/11 11:31:05;;;;;;;4.07;0.90;;;;;;;29.98;28.65;99311.72;5031371;28;20174;-82
2022/05/11 11:33:39;;;;;;;1.95;1.05;;;;;;;29.13;28.29;99312.75;5031578;28;20171;-82
2022/05/11 11:36:26;;;;;;;4.88;1.15;;;;;;;29.57;27.63;99311.63;5031599;28;20166;-83
2022/05/11 11:38:53;;;;;;;5.18;1.35;;;;;;;29.55;29.35;99313.72;5031533;28;20652;-83
2022/05/11 11:41:28;;;;;;;3.13;1.42;;;;;;;29.60;29.22;99309.38;5030276;28;20190;-84
2022/05/11 11:43:56;;;;;;;4.88;1.42;;;;;;;29.67;28.57;99307.56;5030289;28;20213;-86
2022/05/11 11:46:44;;;;;;;2.85;1.25;;;;;;;29.72;29.39;99309.66;5030193;28;20659;-86
2022/05/11 11:49:19;;;;;;;3.25;1.10;;;;;;;29.69;28.78;99304.66;5031066;28;20265;-86
2022/05/11 11:51:50;;;;;;;2.38;1.15;;;;;;;29.47;27.84;99290.38;5030131;28;20178;-87
2022/05/11 11:54:37;;;;;;;3.30;1.33;;;;;;;29.82;29.14;99292.06;5030932;28;20198;-86
2022/05/11 11:57:06;;;;;;;5.65;1.10;;;;;;;29.74;29.57;99291.38;5030085;28;20178;-86
2022/05/11 11:59:36;;;;;;;2.67;1.23;;;;;;;29.91;28.62;99290.03;5030044;28;20183;-87
2022/05/11 12:02:11;;;;;;;3.45;1.30;;;;;;;29.71;29.78;99281.81;5031378;28;20198;-86
2022/05/11 12:04:47;;;;;;;2.53;1.00;;;;;;;29.97;30.13;99285.72;5031201;28;20593;-86
2022/05/11 12:16:08;;;;;;;3.25;1.40;;;;;;;29.94;29.25;99264.47;5031001;28;20261;-87
2022/05/11 12:18:37;;;;;;;3.05;1.73;;;;;;;30.13;29.34;99264.59;5029743;28;20177;-87
2022/05/11 12:21:07;;;;;;;2.78;1.20;;;;;;;30.08;28.36;99260.81;5029692;28;20278;-85
2022/05/11 12:23:36;;;;;;;2.35;1.23;;;;;;;30.02;27.52;99257.03;5029577;28;20258;-86
2022/05/11 12:26:19;;;;;;;3.20;1.38;;;;;;;30.19;28.47;99254.81;5030160;28;20655;-86
2022/05/11 12:28:45;;;;;;;2.83;1.45;;;;;;;30.50;29.44;99244.31;5030185;28;20175;-87
2022/05/11 12:31:26;;;;;;;4.88;2.03;;;;;;;30.51;28.95;99237.03;5030373;28;20618;-86